Flight Track Log - Related Links

Times and Time Zones

All times are in EDT time to prevent confusion due to time zone crossing. See the KAP550 flight status page for this flight to view local times or setup timezone preferences in your user account.


Time Position Orientation Groundspeed Altitude Reporting Facility
EDT Latitude Longitude Course Direction KTS MPH feet Rate Location/Type
Thu 07:34:27 AM 44.5808 -74.7047 160° South 150 173 6,000  Level Boston Center
Thu 07:35:27 AM 44.5458 -74.6858 159° South 138 159 6,500 450 Climbing Boston Center
Thu 07:36:27 AM 44.5064 -74.6669 161° South 143 165 6,900 450 Climbing Boston Center
Thu 07:37:27 AM 44.4714 -74.6481 159° South 143 165 7,400 300 Climbing Boston Center
Thu 07:38:27 AM 44.4344 -74.6294 160° South 149 171 7,500 91 Climbing Boston Center
Thu 07:39:00 AM 44.7124 -74.7312 160° South  Level FlightAware Approximate
Thu 07:39:39 AM 44.3908 -74.6072 160° South 155 178 7,600  Level Boston Center
Thu 07:40:39 AM 44.3372 -74.5792 159° South 161 185 7,600 -50 Level Boston Center
Thu 07:41:39 AM 44.2939 -74.5575 160° South 167 192 7,500 -50 Descending Boston Center
Thu 07:42:39 AM 44.2506 -74.5356 160° South 167 192 7,500 50 Level Boston Center
Thu 07:43:39 AM 44.2114 -74.5197 164° South 167 192 7,600  Climbing Boston Center
Thu 07:44:39 AM 44.1658 -74.4978 161° South 167 192 7,500 -50 Descending Boston Center
Thu 07:45:39 AM 44.1244 -74.4761 159° South 167 192 7,500  Level Boston Center
Thu 07:46:39 AM 44.0833 -74.4544 159° South 167 192 7,500  Level Boston Center
Thu 07:47:39 AM 44.0419 -74.4358 162° South 162 186 7,500  Level Boston Center
Thu 07:48:39 AM 43.9986 -74.4142 160° South 162 186 7,500  Level Boston Center
Thu 07:49:39 AM 43.9592 -74.3928 159° South 162 186 7,500  Level Boston Center
Thu 07:50:39 AM 43.9158 -74.3739 163° South 162 186 7,500  Level Boston Center
Thu 07:51:39 AM 43.8767 -74.3553 161° South 162 186 7,500  Level Boston Center
Thu 07:52:39 AM 43.8331 -74.3339 161° South 162 186 7,500  Level Boston Center
Thu 07:53:39 AM 43.7897 -74.3094 158° South 162 186 7,500  Level Boston Center
Thu 07:54:39 AM 43.7483 -74.2911 162° South 162 186 7,500  Level Boston Center
Thu 07:55:39 AM 43.7050 -74.2725 163° South 167 192 7,500  Level Boston Center
Thu 07:56:39 AM 43.6617 -74.2481 158° South 167 192 7,500 50 Level Boston Center
Thu 07:57:39 AM 43.6203 -74.2297 162° South 167 192 7,600  Climbing Boston Center
Thu 07:58:39 AM 43.5767 -74.2056 158° South 167 192 7,500 -50 Descending Boston Center
Thu 07:59:39 AM 43.5353 -74.1842 159° South 162 186 7,500  Level Boston Center
Thu 08:00:39 AM 43.4919 -74.1631 161° South 162 186 7,500  Level Boston Center
Thu 08:01:39 AM 43.4464 -74.1417 161° South 162 186 7,500  Level Boston Center
Thu 08:02:01 AM 43.4258 -74.1325 162° South 166 191 7,500  Level Boston Center
Thu 08:02:39 AM 43.4050 -74.1233 162° South 162 186 7,500  Level Boston Center
Thu 08:03:01 AM 43.3822 -74.1142 164° South 165 190 7,500  Level Boston Center
Thu 08:03:39 AM 43.3533 -74.0992 159° South 170 196 7,500  Level Boston Center
Thu 08:04:02 AM 43.3386 -74.0958 171° South 166 191 7,500  Level Boston Center
Thu 08:04:51 AM 43.3161 -74.0808 154° Southeast 164 189 7,500 -55 Level Boston Center
Thu 08:05:51 AM 43.2581 -74.0508 159° South 164 189 7,400 -200 Descending Boston Center
Thu 08:06:51 AM 43.2147 -74.0183 151° Southeast 169 194 7,100 -250 Descending Boston Center
Thu 08:07:51 AM 43.1736 -73.9861 150° Southeast 174 200 6,900 -250 Descending Boston Center
Thu 08:08:51 AM 43.1303 -73.9508 149° Southeast 174 200 6,600 -350 Descending Boston Center
Thu 08:09:51 AM 43.0869 -73.9156 149° Southeast 181 208 6,200 -400 Descending Boston Center
Thu 08:10:06 AM 43.0767 -73.9097 157° South 179 206 6,100 -400 Descending Boston Center
Thu 08:10:51 AM 43.0436 -73.8803 147° Southeast 181 208 5,800 -400 Descending Boston Center
Thu 08:11:06 AM 43.0333 -73.8744 157° South 178 205 5,700 -800 Descending Boston Center
Thu 08:11:51 AM 43.0003 -73.8481 150° Southeast 181 208 5,000 -1,082 Descending Boston Center
Thu 08:12:07 AM 42.9900 -73.8394 148° Southeast 189 217 4,600 -1,000 Descending Boston Center
Thu 08:12:51 AM 42.9528 -73.8131 153° Southeast 181 208 4,000 -600 Descending Boston Center
Thu 08:13:07 AM 42.9381 -73.8156 187° South 190 219 4,000 -900 Level Boston Center
Thu 08:13:51 AM 42.8986 -73.8119 176° South 187 215 3,100 -1,082 Descending Boston Center
Thu 08:14:08 AM 42.8861 -73.8117 179° South 183 211 2,900 -600 Descending Boston Center
Thu 08:14:51 AM 42.8486 -73.8078 176° South 187 215 2,500 -984 Descending Boston Center
Thu 08:15:09 AM 42.8403 -73.8133 206° Southwest 169 194 1,900 -1,000 Descending Boston Center
Thu 08:16:09 AM 42.8006 -73.8097 176° South 135 155 1,200 -694 Descending Boston Center
Thu 08:17:10 AM 42.7694 -73.8089 179° South 107 123 500 -689 Descending Boston Center
Thu 08:19:00 AM 42.7491 -73.8020 170° South  Level Estimated

Login

Don't have an account? Register now (free) for customized features, flight alerts, and more!